sensor_id;sensor_type;location;lat;lon;timestamp;pressure;altitude;pressure_sealevel;temperature;humidity
79006;BME280;69202;45.498;-73.582;2023-11-22T00:01:12;101712.44;;;7.02;42.29
79006;BME280;69202;45.498;-73.582;2023-11-22T00:03:38;101699.13;;;7.53;42.12
79006;BME280;69202;45.498;-73.582;2023-11-22T00:06:05;101686.00;;;7.50;42.97
79006;BME280;69202;45.498;-73.582;2023-11-22T00:08:32;101675.31;;;7.41;37.75
79006;BME280;69202;45.498;-73.582;2023-11-22T00:10:59;101669.78;;;7.07;35.02
79006;BME280;69202;45.498;-73.582;2023-11-22T00:13:25;101650.81;;;6.90;39.92
79006;BME280;69202;45.498;-73.582;2023-11-22T00:15:51;101640.44;;;6.95;38.12
79006;BME280;69202;45.498;-73.582;2023-11-22T00:18:17;101638.34;;;6.72;35.34
79006;BME280;69202;45.498;-73.582;2023-11-22T00:20:43;101644.31;;;6.65;33.60
79006;BME280;69202;45.498;-73.582;2023-11-22T00:23:09;101632.84;;;6.91;39.00
79006;BME280;69202;45.498;-73.582;2023-11-22T00:25:35;101632.22;;;6.79;38.83
79006;BME280;69202;45.498;-73.582;2023-11-22T00:28:01;101633.72;;;7.53;45.96
79006;BME280;69202;45.498;-73.582;2023-11-22T00:30:28;101641.00;;;8.47;44.57
79006;BME280;69202;45.498;-73.582;2023-11-22T00:32:54;101643.56;;;8.56;40.28
79006;BME280;69202;45.498;-73.582;2023-11-22T00:35:20;101653.19;;;8.33;41.84
79006;BME280;69202;45.498;-73.582;2023-11-22T00:37:45;101642.34;;;8.17;41.21
79006;BME280;69202;45.498;-73.582;2023-11-22T00:40:12;101628.50;;;8.37;42.69
79006;BME280;69202;45.498;-73.582;2023-11-22T00:42:39;101633.09;;;8.19;38.45
79006;BME280;69202;45.498;-73.582;2023-11-22T00:45:08;101615.78;;;8.30;43.48
79006;BME280;69202;45.498;-73.582;2023-11-22T00:47:35;101615.59;;;8.57;42.56
79006;BME280;69202;45.498;-73.582;2023-11-22T00:50:02;101590.00;;;8.19;43.79
79006;BME280;69202;45.498;-73.582;2023-11-22T00:52:30;101590.50;;;8.73;42.38
79006;BME280;69202;45.498;-73.582;2023-11-22T00:54:56;101546.22;;;8.92;44.83
79006;BME280;69202;45.498;-73.582;2023-11-22T00:57:22;101560.53;;;9.17;43.82
79006;BME280;69202;45.498;-73.582;2023-11-22T00:59:48;101590.34;;;8.75;42.84
79006;BME280;69202;45.498;-73.582;2023-11-22T01:02:15;101536.38;;;8.00;42.61
79006;BME280;69202;45.498;-73.582;2023-11-22T01:04:42;101556.19;;;7.82;43.38
79006;BME280;69202;45.498;-73.582;2023-11-22T01:07:08;101552.41;;;8.09;46.93
79006;BME280;69202;45.498;-73.582;2023-11-22T01:09:34;101549.72;;;8.09;46.71
79006;BME280;69202;45.498;-73.582;2023-11-22T01:12:00;101547.69;;;7.69;45.22
79006;BME280;69202;45.498;-73.582;2023-11-22T01:14:26;101551.66;;;7.57;46.84
79006;BME280;69202;45.498;-73.582;2023-11-22T01:16:53;101560.63;;;8.00;47.69
79006;BME280;69202;45.498;-73.582;2023-11-22T01:19:20;101555.59;;;8.47;46.18
79006;BME280;69202;45.498;-73.582;2023-11-22T01:21:46;101552.66;;;8.32;47.92
79006;BME280;69202;45.498;-73.582;2023-11-22T01:24:12;101552.44;;;8.18;45.83
79006;BME280;69202;45.498;-73.582;2023-11-22T01:26:38;101533.03;;;8.06;49.08
79006;BME280;69202;45.498;-73.582;2023-11-22T01:29:05;101531.19;;;8.81;47.81
79006;BME280;69202;45.498;-73.582;2023-11-22T01:31:31;101517.19;;;8.61;47.92
79006;BME280;69202;45.498;-73.582;2023-11-22T01:33:58;101523.78;;;8.75;46.32
79006;BME280;69202;45.498;-73.582;2023-11-22T01:36:26;101521.06;;;8.34;47.50
79006;BME280;69202;45.498;-73.582;2023-11-22T01:38:53;101501.72;;;8.55;47.83
79006;BME280;69202;45.498;-73.582;2023-11-22T01:41:19;101508.78;;;8.56;48.06
79006;BME280;69202;45.498;-73.582;2023-11-22T01:43:45;101505.66;;;8.27;47.30
79006;BME280;69202;45.498;-73.582;2023-11-22T01:46:22;101512.81;;;7.94;48.12
79006;BME280;69202;45.498;-73.582;2023-11-22T01:48:52;101506.50;;;8.27;48.93
79006;BME280;69202;45.498;-73.582;2023-11-22T01:51:20;101497.91;;;8.32;49.04
79006;BME280;69202;45.498;-73.582;2023-11-22T01:53:48;101478.06;;;8.25;49.88
79006;BME280;69202;45.498;-73.582;2023-11-22T01:56:14;101503.56;;;8.79;48.06
79006;BME280;69202;45.498;-73.582;2023-11-22T01:58:43;101497.31;;;8.62;48.65
79006;BME280;69202;45.498;-73.582;2023-11-22T02:01:09;101481.97;;;8.38;48.30
79006;BME280;69202;45.498;-73.582;2023-11-22T02:03:38;101479.00;;;8.07;48.89
79006;BME280;69202;45.498;-73.582;2023-11-22T02:06:04;101468.81;;;7.77;49.66
79006;BME280;69202;45.498;-73.582;2023-11-22T02:08:31;101466.00;;;7.44;52.31
79006;BME280;69202;45.498;-73.582;2023-11-22T02:11:01;101450.84;;;7.86;50.57
79006;BME280;69202;45.498;-73.582;2023-11-22T02:13:31;101433.06;;;7.59;51.52
79006;BME280;69202;45.498;-73.582;2023-11-22T02:15:57;101406.16;;;7.50;52.15
79006;BME280;69202;45.498;-73.582;2023-11-22T02:18:28;101399.53;;;7.87;52.19
79006;BME280;69202;45.498;-73.582;2023-11-22T02:20:54;101407.22;;;8.65;50.89
79006;BME280;69202;45.498;-73.582;2023-11-22T02:23:20;101405.50;;;8.64;48.91
79006;BME280;69202;45.498;-73.582;2023-11-22T02:25:47;101398.72;;;8.03;50.78
79006;BME280;69202;45.498;-73.582;2023-11-22T02:28:13;101361.16;;;8.01;51.03
79006;BME280;69202;45.498;-73.582;2023-11-22T02:30:39;101371.44;;;7.81;52.03
79006;BME280;69202;45.498;-73.582;2023-11-22T02:33:05;101350.41;;;7.85;52.06
79006;BME280;69202;45.498;-73.582;2023-11-22T02:35:32;101357.13;;;7.89;52.84
79006;BME280;69202;45.498;-73.582;2023-11-22T02:37:59;101339.09;;;7.65;52.47
79006;BME280;69202;45.498;-73.582;2023-11-22T02:40:25;101330.88;;;7.75;53.16
79006;BME280;69202;45.498;-73.582;2023-11-22T02:42:53;101292.69;;;8.45;50.91
79006;BME280;69202;45.498;-73.582;2023-11-22T02:45:20;101302.78;;;8.02;51.09
79006;BME280;69202;45.498;-73.582;2023-11-22T02:47:49;101314.22;;;8.12;52.28
79006;BME280;69202;45.498;-73.582;2023-11-22T02:50:16;101287.88;;;8.79;50.61
79006;BME280;69202;45.498;-73.582;2023-11-22T02:52:42;101292.56;;;9.24;49.75
79006;BME280;69202;45.498;-73.582;2023-11-22T02:55:09;101282.03;;;9.07;49.70
79006;BME280;69202;45.498;-73.582;2023-11-22T02:57:36;101273.63;;;9.33;49.22
79006;BME280;69202;45.498;-73.582;2023-11-22T03:00:06;101244.50;;;8.97;50.12
79006;BME280;69202;45.498;-73.582;2023-11-22T03:02:34;101241.69;;;8.82;50.30
79006;BME280;69202;45.498;-73.582;2023-11-22T03:05:00;101210.41;;;9.27;49.73
79006;BME280;69202;45.498;-73.582;2023-11-22T03:07:26;101212.78;;;9.53;49.23
79006;BME280;69202;45.498;-73.582;2023-11-22T03:09:52;101197.41;;;9.08;49.86
79006;BME280;69202;45.498;-73.582;2023-11-22T03:12:19;101207.69;;;9.04;50.15
79006;BME280;69202;45.498;-73.582;2023-11-22T03:14:46;101194.13;;;8.89;49.98
79006;BME280;69202;45.498;-73.582;2023-11-22T03:17:12;101193.88;;;9.53;49.06
79006;BME280;69202;45.498;-73.582;2023-11-22T03:19:40;101161.41;;;9.15;49.58
79006;BME280;69202;45.498;-73.582;2023-11-22T03:22:06;101142.91;;;9.12;50.29
79006;BME280;69202;45.498;-73.582;2023-11-22T03:24:32;101139.50;;;9.18;49.83
79006;BME280;69202;45.498;-73.582;2023-11-22T03:27:02;101143.75;;;9.13;49.69
79006;BME280;69202;45.498;-73.582;2023-11-22T03:29:29;101155.00;;;8.93;50.24
79006;BME280;69202;45.498;-73.582;2023-11-22T03:31:55;101165.44;;;8.96;50.63
79006;BME280;69202;45.498;-73.582;2023-11-22T03:34:21;101158.78;;;9.53;50.15
79006;BME280;69202;45.498;-73.582;2023-11-22T03:36:47;101172.81;;;9.71;48.79
79006;BME280;69202;45.498;-73.582;2023-11-22T03:39:15;101161.50;;;9.07;49.57
79006;BME280;69202;45.498;-73.582;2023-11-22T03:41:42;101177.31;;;8.48;51.24
79006;BME280;69202;45.498;-73.582;2023-11-22T03:44:08;101180.66;;;8.50;51.80
79006;BME280;69202;45.498;-73.582;2023-11-22T03:46:38;101183.13;;;8.04;52.22
79006;BME280;69202;45.498;-73.582;2023-11-22T03:49:05;101177.25;;;7.93;53.59
79006;BME280;69202;45.498;-73.582;2023-11-22T03:51:32;101191.91;;;7.58;53.70
79006;BME280;69202;45.498;-73.582;2023-11-22T03:53:59;101225.88;;;7.67;54.82
79006;BME280;69202;45.498;-73.582;2023-11-22T03:56:25;101230.06;;;7.37;57.13
79006;BME280;69202;45.498;-73.582;2023-11-22T03:58:51;101243.63;;;8.65;53.97
79006;BME280;69202;45.498;-73.582;2023-11-22T04:01:17;101249.38;;;8.30;54.44
79006;BME280;69202;45.498;-73.582;2023-11-22T04:03:44;101264.75;;;8.05;54.15
79006;BME280;69202;45.498;-73.582;2023-11-22T04:06:10;101234.63;;;7.44;54.86
79006;BME280;69202;45.498;-73.582;2023-11-22T04:08:36;101249.50;;;7.06;56.07
79006;BME280;69202;45.498;-73.582;2023-11-22T04:11:04;101227.19;;;6.72;57.36
79006;BME280;69202;45.498;-73.582;2023-11-22T04:13:31;101219.56;;;6.51;58.04
79006;BME280;69202;45.498;-73.582;2023-11-22T04:15:57;101170.38;;;6.24;59.36
79006;BME280;69202;45.498;-73.582;2023-11-22T04:18:23;101210.03;;;6.30;58.70
79006;BME280;69202;45.498;-73.582;2023-11-22T04:20:50;101204.69;;;6.04;59.20
79006;BME280;69202;45.498;-73.582;2023-11-22T04:23:16;101209.00;;;5.97;59.52
79006;BME280;69202;45.498;-73.582;2023-11-22T04:25:42;101205.03;;;5.84;60.16
79006;BME280;69202;45.498;-73.582;2023-11-22T04:28:08;101193.03;;;6.56;62.09
79006;BME280;69202;45.498;-73.582;2023-11-22T04:30:35;101222.03;;;6.44;59.86
79006;BME280;69202;45.498;-73.582;2023-11-22T04:33:02;101214.47;;;6.14;60.00
79006;BME280;69202;45.498;-73.582;2023-11-22T04:35:28;101212.97;;;6.87;62.39
79006;BME280;69202;45.498;-73.582;2023-11-22T04:37:54;101190.81;;;6.93;59.49
79006;BME280;69202;45.498;-73.582;2023-11-22T04:40:24;101184.72;;;6.75;58.78
79006;BME280;69202;45.498;-73.582;2023-11-22T04:42:50;101172.66;;;6.45;59.52
79006;BME280;69202;45.498;-73.582;2023-11-22T04:45:16;101163.19;;;6.25;60.07
79006;BME280;69202;45.498;-73.582;2023-11-22T04:47:42;101177.88;;;6.13;60.33
79006;BME280;69202;45.498;-73.582;2023-11-22T04:50:08;101152.69;;;6.05;60.94
79006;BME280;69202;45.498;-73.582;2023-11-22T04:52:35;101140.22;;;5.96;62.36
79006;BME280;69202;45.498;-73.582;2023-11-22T04:55:01;101127.41;;;6.16;62.15
79006;BME280;69202;45.498;-73.582;2023-11-22T04:57:27;101110.47;;;6.16;62.40
79006;BME280;69202;45.498;-73.582;2023-11-22T04:59:53;101102.53;;;6.06;61.50
79006;BME280;69202;45.498;-73.582;2023-11-22T05:02:19;101082.13;;;6.21;62.71
79006;BME280;69202;45.498;-73.582;2023-11-22T05:04:45;101075.06;;;6.20;62.60
79006;BME280;69202;45.498;-73.582;2023-11-22T05:07:14;101068.31;;;6.08;62.77
79006;BME280;69202;45.498;-73.582;2023-11-22T05:09:41;101056.03;;;5.97;62.71
79006;BME280;69202;45.498;-73.582;2023-11-22T05:12:09;101047.91;;;5.89;62.78
79006;BME280;69202;45.498;-73.582;2023-11-22T05:14:36;101051.22;;;5.83;62.55
79006;BME280;69202;45.498;-73.582;2023-11-22T05:17:02;101058.75;;;5.79;62.90
79006;BME280;69202;45.498;-73.582;2023-11-22T05:19:29;101041.94;;;5.95;65.37
79006;BME280;69202;45.498;-73.582;2023-11-22T05:21:55;101043.91;;;6.27;63.99
79006;BME280;69202;45.498;-73.582;2023-11-22T05:24:21;101054.19;;;6.56;63.96
79006;BME280;69202;45.498;-73.582;2023-11-22T05:26:47;101037.75;;;6.59;62.85
79006;BME280;69202;45.498;-73.582;2023-11-22T05:29:13;101030.81;;;6.41;62.22
79006;BME280;69202;45.498;-73.582;2023-11-22T05:31:39;101033.69;;;6.55;63.86
79006;BME280;69202;45.498;-73.582;2023-11-22T05:34:05;101031.22;;;6.78;63.28
79006;BME280;69202;45.498;-73.582;2023-11-22T05:36:31;101007.34;;;6.59;62.14
79006;BME280;69202;45.498;-73.582;2023-11-22T05:38:57;101021.94;;;6.40;62.11
79006;BME280;69202;45.498;-73.582;2023-11-22T05:41:26;101032.44;;;6.17;62.90
79006;BME280;69202;45.498;-73.582;2023-11-22T05:43:52;101000.16;;;6.01;62.21
79006;BME280;69202;45.498;-73.582;2023-11-22T05:46:22;101006.34;;;5.93;62.53
79006;BME280;69202;45.498;-73.582;2023-11-22T05:48:51;100995.78;;;5.92;64.23
79006;BME280;69202;45.498;-73.582;2023-11-22T05:51:17;100983.72;;;5.96;63.78
79006;BME280;69202;45.498;-73.582;2023-11-22T05:53:45;100968.63;;;5.95;64.80
79006;BME280;69202;45.498;-73.582;2023-11-22T05:56:11;100973.31;;;5.93;64.74
79006;BME280;69202;45.498;-73.582;2023-11-22T05:58:38;100996.16;;;5.97;65.13
79006;BME280;69202;45.498;-73.582;2023-11-22T06:01:05;101027.44;;;5.88;63.73
79006;BME280;69202;45.498;-73.582;2023-11-22T06:03:32;101024.38;;;5.83;65.18
79006;BME280;69202;45.498;-73.582;2023-11-22T06:05:58;101023.19;;;6.12;66.12
79006;BME280;69202;45.498;-73.582;2023-11-22T06:08:25;101021.50;;;6.11;64.67
79006;BME280;69202;45.498;-73.582;2023-11-22T06:10:52;100998.63;;;5.90;64.56
79006;BME280;69202;45.498;-73.582;2023-11-22T06:13:19;101002.28;;;5.89;64.59
79006;BME280;69202;45.498;-73.582;2023-11-22T06:15:45;100993.19;;;5.74;63.90
79006;BME280;69202;45.498;-73.582;2023-11-22T06:18:11;100984.75;;;5.69;64.24
79006;BME280;69202;45.498;-73.582;2023-11-22T06:20:40;100980.06;;;5.63;64.26
79006;BME280;69202;45.498;-73.582;2023-11-22T06:23:06;100990.28;;;5.67;64.70
79006;BME280;69202;45.498;-73.582;2023-11-22T06:25:32;100989.75;;;5.56;64.17
79006;BME280;69202;45.498;-73.582;2023-11-22T06:27:58;100979.00;;;5.56;65.32
79006;BME280;69202;45.498;-73.582;2023-11-22T06:30:24;100955.91;;;5.63;66.67
79006;BME280;69202;45.498;-73.582;2023-11-22T06:32:51;100949.53;;;6.06;67.91
79006;BME280;69202;45.498;-73.582;2023-11-22T06:35:17;100968.34;;;6.22;65.32
79006;BME280;69202;45.498;-73.582;2023-11-22T06:37:43;100954.75;;;6.07;64.82
79006;BME280;69202;45.498;-73.582;2023-11-22T06:40:10;100904.31;;;5.77;67.38
79006;BME280;69202;45.498;-73.582;2023-11-22T06:42:40;100935.81;;;6.42;66.02
79006;BME280;69202;45.498;-73.582;2023-11-22T06:45:07;100897.19;;;6.10;66.13
79006;BME280;69202;45.498;-73.582;2023-11-22T06:47:39;100930.09;;;6.45;65.11
79006;BME280;69202;45.498;-73.582;2023-11-22T06:50:05;100922.91;;;6.53;65.91
79006;BME280;69202;45.498;-73.582;2023-11-22T06:52:38;100927.09;;;6.72;63.63
79006;BME280;69202;45.498;-73.582;2023-11-22T06:55:08;100931.97;;;6.36;62.91
79006;BME280;69202;45.498;-73.582;2023-11-22T06:57:35;100934.78;;;6.18;64.00
79006;BME280;69202;45.498;-73.582;2023-11-22T07:00:02;100920.03;;;6.22;64.78
79006;BME280;69202;45.498;-73.582;2023-11-22T07:02:33;100902.88;;;5.99;63.79
79006;BME280;69202;45.498;-73.582;2023-11-22T07:05:01;100907.13;;;6.18;65.82
79006;BME280;69202;45.498;-73.582;2023-11-22T07:07:28;100896.88;;;6.38;66.10
79006;BME280;69202;45.498;-73.582;2023-11-22T07:09:55;100891.53;;;6.38;65.31
79006;BME280;69202;45.498;-73.582;2023-11-22T07:12:24;100887.31;;;6.35;64.47
79006;BME280;69202;45.498;-73.582;2023-11-22T07:14:50;100853.72;;;6.63;65.46
79006;BME280;69202;45.498;-73.582;2023-11-22T07:17:17;100863.81;;;6.53;64.11
79006;BME280;69202;45.498;-73.582;2023-11-22T07:19:47;100873.22;;;6.57;64.62
79006;BME280;69202;45.498;-73.582;2023-11-22T07:22:14;100874.03;;;6.66;65.14
79006;BME280;69202;45.498;-73.582;2023-11-22T07:24:46;100878.19;;;6.93;65.39
79006;BME280;69202;45.498;-73.582;2023-11-22T07:27:20;100864.66;;;7.57;64.41
79006;BME280;69202;45.498;-73.582;2023-11-22T07:29:46;100858.63;;;7.55;62.29
79006;BME280;69202;45.498;-73.582;2023-11-22T07:32:13;100857.97;;;7.13;62.82
79006;BME280;69202;45.498;-73.582;2023-11-22T07:34:41;100865.06;;;7.37;64.00
79006;BME280;69202;45.498;-73.582;2023-11-22T07:37:08;100845.84;;;7.17;64.29
79006;BME280;69202;45.498;-73.582;2023-11-22T07:39:37;100841.53;;;7.39;63.94
79006;BME280;69202;45.498;-73.582;2023-11-22T07:42:04;100829.38;;;7.51;63.59
79006;BME280;69202;45.498;-73.582;2023-11-22T07:44:34;100827.16;;;7.24;62.16
79006;BME280;69202;45.498;-73.582;2023-11-22T07:47:04;100805.69;;;7.16;63.74
79006;BME280;69202;45.498;-73.582;2023-11-22T07:49:34;100804.59;;;6.94;62.71
79006;BME280;69202;45.498;-73.582;2023-11-22T07:52:05;100808.56;;;6.67;62.26
79006;BME280;69202;45.498;-73.582;2023-11-22T07:54:31;100805.34;;;6.63;64.10
79006;BME280;69202;45.498;-73.582;2023-11-22T07:56:57;100839.75;;;6.76;64.98
79006;BME280;69202;45.498;-73.582;2023-11-22T07:59:23;100817.41;;;6.76;63.99
79006;BME280;69202;45.498;-73.582;2023-11-22T08:01:49;100845.34;;;6.58;63.30
79006;BME280;69202;45.498;-73.582;2023-11-22T08:04:15;100841.66;;;6.43;63.88
79006;BME280;69202;45.498;-73.582;2023-11-22T08:06:44;100826.19;;;6.53;66.40
79006;BME280;69202;45.498;-73.582;2023-11-22T08:09:11;100788.41;;;6.63;65.91
79006;BME280;69202;45.498;-73.582;2023-11-22T08:11:37;100790.72;;;6.74;64.53
79006;BME280;69202;45.498;-73.582;2023-11-22T08:14:03;100792.78;;;6.56;63.83
79006;BME280;69202;45.498;-73.582;2023-11-22T08:16:29;100787.28;;;6.33;64.10
79006;BME280;69202;45.498;-73.582;2023-11-22T08:18:55;100792.84;;;6.31;65.61
79006;BME280;69202;45.498;-73.582;2023-11-22T08:21:22;100797.31;;;6.55;66.56
79006;BME280;69202;45.498;-73.582;2023-11-22T08:23:49;100727.34;;;6.49;65.80
79006;BME280;69202;45.498;-73.582;2023-11-22T08:26:15;100778.03;;;6.52;64.08
79006;BME280;69202;45.498;-73.582;2023-11-22T08:28:41;100779.50;;;6.71;67.30
79006;BME280;69202;45.498;-73.582;2023-11-22T08:31:08;100780.41;;;6.94;65.59
79006;BME280;69202;45.498;-73.582;2023-11-22T08:33:37;100761.03;;;6.68;64.79
79006;BME280;69202;45.498;-73.582;2023-11-22T08:36:04;100758.53;;;6.58;64.69
79006;BME280;69202;45.498;-73.582;2023-11-22T08:38:31;100743.44;;;6.57;65.60
79006;BME280;69202;45.498;-73.582;2023-11-22T08:41:06;100735.78;;;6.38;64.83
79006;BME280;69202;45.498;-73.582;2023-11-22T08:43:33;100742.91;;;6.61;66.43
79006;BME280;69202;45.498;-73.582;2023-11-22T08:46:00;100747.34;;;6.46;65.07
79006;BME280;69202;45.498;-73.582;2023-11-22T08:48:26;100742.34;;;6.27;65.02
79006;BME280;69202;45.498;-73.582;2023-11-22T08:50:52;100727.38;;;6.24;66.18
79006;BME280;69202;45.498;-73.582;2023-11-22T08:53:20;100729.94;;;6.26;65.75
79006;BME280;69202;45.498;-73.582;2023-11-22T08:55:47;100719.94;;;6.51;66.06
79006;BME280;69202;45.498;-73.582;2023-11-22T08:58:13;100709.84;;;6.61;66.25
79006;BME280;69202;45.498;-73.582;2023-11-22T09:00:40;100707.44;;;6.66;65.37
79006;BME280;69202;45.498;-73.582;2023-11-22T09:03:09;100703.06;;;6.73;66.77
79006;BME280;69202;45.498;-73.582;2023-11-22T09:05:41;100683.47;;;6.56;66.12
79006;BME280;69202;45.498;-73.582;2023-11-22T09:08:08;100694.59;;;6.84;66.91
79006;BME280;69202;45.498;-73.582;2023-11-22T09:10:39;100710.41;;;7.64;64.98
79006;BME280;69202;45.498;-73.582;2023-11-22T09:13:05;100687.31;;;7.24;63.03
79006;BME280;69202;45.498;-73.582;2023-11-22T09:15:31;100689.16;;;7.01;65.24
79006;BME280;69202;45.498;-73.582;2023-11-22T09:17:59;100692.53;;;7.26;64.69
79006;BME280;69202;45.498;-73.582;2023-11-22T09:20:25;100691.09;;;7.38;66.07
79006;BME280;69202;45.498;-73.582;2023-11-22T09:22:55;100678.03;;;7.49;64.42
79006;BME280;69202;45.498;-73.582;2023-11-22T09:25:25;100677.94;;;7.66;65.21
79006;BME280;69202;45.498;-73.582;2023-11-22T09:27:54;100671.97;;;7.56;63.10
79006;BME280;69202;45.498;-73.582;2023-11-22T09:30:22;100678.22;;;7.71;64.33
79006;BME280;69202;45.498;-73.582;2023-11-22T09:33:13;100674.72;;;7.85;62.92
79006;BME280;69202;45.498;-73.582;2023-11-22T09:35:45;100662.75;;;7.88;65.62
79006;BME280;69202;45.498;-73.582;2023-11-22T09:38:12;100646.53;;;7.96;62.64
79006;BME280;69202;45.498;-73.582;2023-11-22T09:40:46;100659.16;;;7.58;61.45
79006;BME280;69202;45.498;-73.582;2023-11-22T09:43:13;100633.47;;;7.55;64.05
79006;BME280;69202;45.498;-73.582;2023-11-22T09:45:44;100639.75;;;7.24;61.80
79006;BME280;69202;45.498;-73.582;2023-11-22T09:48:19;100644.69;;;7.59;63.99
79006;BME280;69202;45.498;-73.582;2023-11-22T09:51:08;100636.50;;;7.29;61.83
79006;BME280;69202;45.498;-73.582;2023-11-22T09:56:09;100635.34;;;7.09;62.59
79006;BME280;69202;45.498;-73.582;2023-11-22T09:58:42;100637.72;;;7.04;62.88
79006;BME280;69202;45.498;-73.582;2023-11-22T10:01:14;100614.88;;;6.77;63.58
79006;BME280;69202;45.498;-73.582;2023-11-22T10:03:41;100633.06;;;6.66;64.00
79006;BME280;69202;45.498;-73.582;2023-11-22T10:06:08;100622.63;;;7.03;66.99
79006;BME280;69202;45.498;-73.582;2023-11-22T10:08:34;100625.00;;;7.20;64.64
79006;BME280;69202;45.498;-73.582;2023-11-22T10:11:04;100621.47;;;6.97;66.46
79006;BME280;69202;45.498;-73.582;2023-11-22T10:13:30;100593.28;;;6.93;64.15
79006;BME280;69202;45.498;-73.582;2023-11-22T10:16:09;100583.69;;;7.36;65.75
79006;BME280;69202;45.498;-73.582;2023-11-22T10:18:42;100600.19;;;7.33;64.28
79006;BME280;69202;45.498;-73.582;2023-11-22T10:21:21;100599.31;;;7.56;64.68
79006;BME280;69202;45.498;-73.582;2023-11-22T10:23:48;100611.97;;;7.32;63.77
79006;BME280;69202;45.498;-73.582;2023-11-22T10:26:14;100613.94;;;7.15;63.88
79006;BME280;69202;45.498;-73.582;2023-11-22T10:28:43;100594.06;;;6.79;63.42
79006;BME280;69202;45.498;-73.582;2023-11-22T10:31:09;100609.75;;;6.67;62.97
79006;BME280;69202;45.498;-73.582;2023-11-22T10:33:54;100605.09;;;6.53;63.25
79006;BME280;69202;45.498;-73.582;2023-11-22T10:36:24;100610.38;;;6.46;64.16
79006;BME280;69202;45.498;-73.582;2023-11-22T10:38:50;100607.38;;;6.33;64.16
79006;BME280;69202;45.498;-73.582;2023-11-22T10:41:16;100538.09;;;5.81;64.87
79006;BME280;69202;45.498;-73.582;2023-11-22T10:43:44;100595.16;;;6.30;66.33
79006;BME280;69202;45.498;-73.582;2023-11-22T10:46:12;100594.63;;;6.35;67.16
79006;BME280;69202;45.498;-73.582;2023-11-22T10:48:39;100594.16;;;6.62;69.30
79006;BME280;69202;45.498;-73.582;2023-11-22T10:51:05;100606.66;;;7.01;67.58
79006;BME280;69202;45.498;-73.582;2023-11-22T10:53:33;100616.78;;;7.37;67.33
79006;BME280;69202;45.498;-73.582;2023-11-22T10:56:07;100593.50;;;7.67;66.59
79006;BME280;69202;45.498;-73.582;2023-11-22T10:58:50;100604.25;;;7.52;64.66
79006;BME280;69202;45.498;-73.582;2023-11-22T11:01:19;100599.63;;;7.38;64.56
79006;BME280;69202;45.498;-73.582;2023-11-22T11:04:02;100605.41;;;7.12;63.71
79006;BME280;69202;45.498;-73.582;2023-11-22T11:06:34;100608.81;;;6.83;64.18
79006;BME280;69202;45.498;-73.582;2023-11-22T11:09:04;100598.41;;;6.57;64.71
79006;BME280;69202;45.498;-73.582;2023-11-22T11:11:36;100624.22;;;6.58;64.92
79006;BME280;69202;45.498;-73.582;2023-11-22T11:14:03;100612.16;;;6.54;66.67
79006;BME280;69202;45.498;-73.582;2023-11-22T11:16:32;100608.84;;;6.44;65.74
79006;BME280;69202;45.498;-73.582;2023-11-22T11:19:04;100614.09;;;6.37;65.92
79006;BME280;69202;45.498;-73.582;2023-11-22T11:21:33;100606.06;;;6.29;65.85
79006;BME280;69202;45.498;-73.582;2023-11-22T11:24:00;100594.88;;;6.17;66.23
79006;BME280;69202;45.498;-73.582;2023-11-22T11:26:33;100596.19;;;6.21;66.28
79006;BME280;69202;45.498;-73.582;2023-11-22T11:29:02;100599.06;;;6.20;67.05
79006;BME280;69202;45.498;-73.582;2023-11-22T11:31:34;100593.03;;;6.18;67.58
79006;BME280;69202;45.498;-73.582;2023-11-22T11:34:08;100598.19;;;6.27;68.47
79006;BME280;69202;45.498;-73.582;2023-11-22T11:36:37;100595.69;;;6.26;68.38
79006;BME280;69202;45.498;-73.582;2023-11-22T11:39:07;100597.69;;;6.55;69.71
79006;BME280;69202;45.498;-73.582;2023-11-22T11:41:41;100597.69;;;6.55;69.32
79006;BME280;69202;45.498;-73.582;2023-11-22T11:44:08;100567.72;;;6.43;67.81
79006;BME280;69202;45.498;-73.582;2023-11-22T11:46:38;100591.38;;;6.79;70.30
79006;BME280;69202;45.498;-73.582;2023-11-22T11:49:13;100585.44;;;6.83;67.39
79006;BME280;69202;45.498;-73.582;2023-11-22T11:51:42;100594.28;;;6.69;66.16
79006;BME280;69202;45.498;-73.582;2023-11-22T11:54:08;100576.94;;;6.49;66.27
79006;BME280;69202;45.498;-73.582;2023-11-22T11:56:37;100579.88;;;6.62;68.80
79006;BME280;69202;45.498;-73.582;2023-11-22T11:59:03;100586.22;;;6.69;68.07
79006;BME280;69202;45.498;-73.582;2023-11-22T12:01:30;100583.72;;;6.68;67.94
79006;BME280;69202;45.498;-73.582;2023-11-22T12:04:00;100574.91;;;6.51;66.67
79006;BME280;69202;45.498;-73.582;2023-11-22T12:06:26;100566.25;;;6.41;67.04
79006;BME280;69202;45.498;-73.582;2023-11-22T12:08:54;100568.78;;;6.34;66.82
79006;BME280;69202;45.498;-73.582;2023-11-22T12:11:21;100570.41;;;6.74;69.81
79006;BME280;69202;45.498;-73.582;2023-11-22T12:13:47;100558.44;;;6.77;69.47
79006;BME280;69202;45.498;-73.582;2023-11-22T12:16:15;100569.47;;;7.28;69.89
79006;BME280;69202;45.498;-73.582;2023-11-22T12:18:43;100570.06;;;7.38;67.36
79006;BME280;69202;45.498;-73.582;2023-11-22T12:21:11;100573.91;;;7.58;66.45
79006;BME280;69202;45.498;-73.582;2023-11-22T12:23:41;100580.16;;;7.73;66.49
79006;BME280;69202;45.498;-73.582;2023-11-22T12:26:15;100576.78;;;7.57;65.19
79006;BME280;69202;45.498;-73.582;2023-11-22T12:28:46;100568.63;;;7.27;65.01
79006;BME280;69202;45.498;-73.582;2023-11-22T12:31:16;100571.47;;;7.11;64.64
79006;BME280;69202;45.498;-73.582;2023-11-22T12:33:43;100556.50;;;6.93;64.38
79006;BME280;69202;45.498;-73.582;2023-11-22T12:36:11;100547.69;;;6.77;64.28
79006;BME280;69202;45.498;-73.582;2023-11-22T12:38:42;100553.16;;;6.69;65.40
79006;BME280;69202;45.498;-73.582;2023-11-22T12:41:08;100550.69;;;6.59;65.54
79006;BME280;69202;45.498;-73.582;2023-11-22T12:43:35;100539.94;;;6.59;67.24
79006;BME280;69202;45.498;-73.582;2023-11-22T12:46:03;100523.75;;;6.44;67.09